Time;durP1;ratioP1;P1;durP2;ratioP2;P2;SDS_P1;SDS_P2;PMS_P1;PMS_P2;Temp;Humidity;BMP_temperature;BMP_pressure;BME280_temperature;BME280_humidity;BME280_pressure;Samples;Min_cycle;Max_cycle;Signal;HPM_P1;HPM_P2
2023/01/26 00:01:07;;;;;;;77.60;24.23;;;;;;;;;;5090764;28;20658;-82
2023/01/26 00:03:33;;;;;;;86.77;25.00;;;;;;;;;;5086861;28;20099;-82
2023/01/26 00:06:01;;;;;;;88.17;25.10;;;;;;;;;;5094049;28;20099;-82
2023/01/26 00:08:27;;;;;;;61.97;17.80;;;;;;;;;;5087983;28;20016;-82
2023/01/26 00:10:52;;;;;;;74.97;21.17;;;;;;;;;;5090555;28;20111;-82
2023/01/26 00:13:18;;;;;;;81.87;23.83;;;;;;;;;;5092888;28;20359;-82
2023/01/26 00:15:44;;;;;;;88.50;26.57;;;;;;;;;;5094071;28;20016;-83
2023/01/26 00:18:09;;;;;;;99.47;28.07;;;;;;;;;;5093036;28;20474;-82
2023/01/26 00:20:34;;;;;;;86.97;26.30;;;;;;;;;;5083838;28;20024;-81
2023/01/26 00:22:59;;;;;;;88.70;28.60;;;;;;;;;;5092487;28;20028;-81
2023/01/26 00:25:24;;;;;;;84.70;25.57;;;;;;;;;;5092713;28;20032;-81
2023/01/26 00:27:50;;;;;;;86.40;27.20;;;;;;;;;;5092266;28;20028;-81
2023/01/26 00:30:15;;;;;;;101.57;29.17;;;;;;;;;;5080180;28;20023;-81
2023/01/26 00:32:40;;;;;;;93.27;28.27;;;;;;;;;;5093556;28;20020;-82
2023/01/26 00:35:06;;;;;;;94.67;27.30;;;;;;;;;;5093502;28;20508;-81
2023/01/26 00:37:31;;;;;;;81.50;22.73;;;;;;;;;;5092405;28;20016;-82
2023/01/26 00:39:56;;;;;;;90.70;26.53;;;;;;;;;;5078532;28;20537;-81
2023/01/26 00:42:23;;;;;;;81.13;24.20;;;;;;;;;;5092220;28;20544;-81
2023/01/26 00:44:48;;;;;;;81.73;24.23;;;;;;;;;;5083083;28;20045;-82
2023/01/26 00:47:13;;;;;;;92.67;28.13;;;;;;;;;;5075859;28;20469;-82
2023/01/26 00:49:38;;;;;;;95.50;27.00;;;;;;;;;;5080841;28;20040;-82
2023/01/26 00:52:04;;;;;;;91.57;27.47;;;;;;;;;;5089248;28;20027;-81
2023/01/26 00:54:29;;;;;;;88.70;21.63;;;;;;;;;;5091939;28;20027;-82
2023/01/26 00:56:54;;;;;;;92.20;27.87;;;;;;;;;;5093513;28;20031;-82
2023/01/26 00:59:20;;;;;;;91.20;26.90;;;;;;;;;;5089052;28;20055;-82
2023/01/26 01:01:45;;;;;;;72.47;21.07;;;;;;;;;;5091664;28;20020;-82
2023/01/26 01:04:10;;;;;;;73.10;22.13;;;;;;;;;;5090862;28;20046;-82
2023/01/26 01:06:35;;;;;;;65.47;20.07;;;;;;;;;;5091960;28;20035;-82
2023/01/26 01:09:01;;;;;;;69.67;19.67;;;;;;;;;;5088894;28;20468;-82
2023/01/26 01:11:26;;;;;;;67.00;20.90;;;;;;;;;;5091456;28;20439;-82
2023/01/26 01:13:51;;;;;;;81.13;25.93;;;;;;;;;;5091598;28;20120;-82
2023/01/26 01:16:17;;;;;;;89.93;27.57;;;;;;;;;;5092953;28;20016;-81
2023/01/26 01:18:42;;;;;;;84.27;25.40;;;;;;;;;;5073848;28;20036;-82
2023/01/26 01:21:08;;;;;;;74.13;22.63;;;;;;;;;;5072678;28;20089;-82
2023/01/26 01:23:34;;;;;;;69.50;22.10;;;;;;;;;;5070860;28;20016;-82
2023/01/26 01:25:59;;;;;;;85.23;25.00;;;;;;;;;;5069604;28;20039;-81
2023/01/26 01:28:24;;;;;;;92.63;26.40;;;;;;;;;;5070144;28;20026;-81
2023/01/26 01:30:50;;;;;;;67.53;19.07;;;;;;;;;;5072633;28;20047;-82
2023/01/26 01:33:15;;;;;;;87.17;25.03;;;;;;;;;;5071263;28;20099;-81
2023/01/26 01:35:40;;;;;;;69.60;19.60;;;;;;;;;;5071187;28;20032;-81
2023/01/26 01:38:05;;;;;;;78.20;22.80;;;;;;;;;;5070163;28;20074;-81
2023/01/26 01:40:30;;;;;;;72.13;21.80;;;;;;;;;;5070303;28;20631;-81
2023/01/26 01:42:56;;;;;;;64.77;19.13;;;;;;;;;;5070561;28;20035;-82
2023/01/26 01:45:24;;;;;;;68.13;18.93;;;;;;;;;;5070352;28;20032;-82
2023/01/26 01:47:49;;;;;;;75.30;21.00;;;;;;;;;;5070124;28;20363;-82
2023/01/26 01:50:16;;;;;;;70.07;21.10;;;;;;;;;;5070466;28;20131;-81
2023/01/26 01:52:42;;;;;;;77.03;23.07;;;;;;;;;;5070922;28;20058;-81
2023/01/26 01:55:09;;;;;;;75.40;21.40;;;;;;;;;;5072009;28;20032;-81
2023/01/26 01:57:45;;;;;;;76.67;21.40;;;;;;;;;;5070017;28;20544;-82
2023/01/26 02:00:15;;;;;;;70.37;20.67;;;;;;;;;;5071446;28;20436;-81
2023/01/26 02:02:42;;;;;;;61.27;18.77;;;;;;;;;;5070410;28;20029;-81
2023/01/26 02:05:23;;;;;;;69.53;19.47;;;;;;;;;;5070491;28;20383;-81
2023/01/26 02:07:49;;;;;;;70.17;20.00;;;;;;;;;;5064144;28;20052;-81
2023/01/26 02:10:19;;;;;;;59.83;17.90;;;;;;;;;;5065031;28;20095;-82
2023/01/26 02:12:49;;;;;;;63.47;17.33;;;;;;;;;;5070809;28;20467;-82
2023/01/26 02:15:14;;;;;;;69.73;18.10;;;;;;;;;;5069901;28;20036;-82
2023/01/26 02:17:40;;;;;;;64.30;17.77;;;;;;;;;;5069254;28;20024;-81
2023/01/26 02:20:27;;;;;;;74.43;18.93;;;;;;;;;;5071600;28;20111;-82
2023/01/26 02:23:16;;;;;;;72.47;18.00;;;;;;;;;;5071513;28;20028;-82
2023/01/26 02:25:48;;;;;;;64.63;16.50;;;;;;;;;;5070112;28;20031;-81
2023/01/26 02:28:13;;;;;;;60.90;17.17;;;;;;;;;;5067973;28;20025;-81
2023/01/26 02:30:38;;;;;;;69.50;19.80;;;;;;;;;;5069196;28;20029;-80
2023/01/26 02:33:03;;;;;;;59.97;18.07;;;;;;;;;;5071612;28;20023;-81
2023/01/26 02:35:29;;;;;;;68.27;19.50;;;;;;;;;;5070064;28;20026;-82
2023/01/26 02:37:54;;;;;;;64.63;17.83;;;;;;;;;;5070924;28;20108;-81
2023/01/26 02:40:37;;;;;;;56.50;15.77;;;;;;;;;;5069852;28;20108;-81
2023/01/26 02:43:02;;;;;;;56.67;15.57;;;;;;;;;;5071279;28;20464;-81
2023/01/26 02:45:29;;;;;;;64.57;16.80;;;;;;;;;;5069734;28;20013;-81
2023/01/26 02:47:54;;;;;;;60.60;16.07;;;;;;;;;;5068718;28;20021;-81
2023/01/26 02:50:19;;;;;;;59.93;15.03;;;;;;;;;;5069919;28;20422;-82
2023/01/26 02:52:44;;;;;;;59.63;16.17;;;;;;;;;;5071503;28;20367;-81
2023/01/26 02:55:22;;;;;;;52.97;14.67;;;;;;;;;;5069924;28;20017;-81
2023/01/26 02:57:48;;;;;;;59.67;15.17;;;;;;;;;;5069272;28;20038;-81
2023/01/26 03:00:35;;;;;;;59.63;16.30;;;;;;;;;;5069881;28;20074;-81
2023/01/26 03:03:02;;;;;;;56.67;14.30;;;;;;;;;;5071613;28;20070;-82
2023/01/26 03:05:27;;;;;;;58.93;16.47;;;;;;;;;;5069779;28;20086;-82
2023/01/26 03:07:52;;;;;;;48.23;14.27;;;;;;;;;;5068957;28;20452;-82
2023/01/26 03:10:18;;;;;;;57.37;16.70;;;;;;;;;;5071029;28;20032;-82
2023/01/26 03:12:43;;;;;;;59.03;14.67;;;;;;;;;;5071291;28;20381;-81
2023/01/26 03:27:25;;;;;;;47.03;13.77;;;;;;;;;;5082261;28;20070;-81
2023/01/26 03:29:03;;;;;;;57.97;15.13;;;;;;;;;;5073229;28;20489;-81
2023/01/26 03:31:28;;;;;;;59.17;14.70;;;;;;;;;;5074414;28;20009;-82
2023/01/26 03:33:53;;;;;;;52.60;13.17;;;;;;;;;;5073332;28;20024;-82
2023/01/26 03:36:19;;;;;;;52.93;13.40;;;;;;;;;;5072433;28;20103;-81
2023/01/26 03:38:44;;;;;;;47.33;12.73;;;;;;;;;;5073056;28;20021;-82
2023/01/26 03:57:32;;;;;;;43.93;12.20;;;;;;;;;;5073663;28;20073;-81
2023/01/26 03:59:58;;;;;;;37.57;12.03;;;;;;;;;;5072131;28;20124;-81
2023/01/26 04:10:35;;;;;;;39.53;10.90;;;;;;;;;;5074005;28;20027;-81
2023/01/26 04:21:27;;;;;;;45.40;11.93;;;;;;;;;;5062386;28;20042;-82
2023/01/26 04:23:55;;;;;;;38.67;11.90;;;;;;;;;;5072680;28;20021;-81
2023/01/26 04:26:20;;;;;;;43.03;10.80;;;;;;;;;;5073426;28;20104;-81
2023/01/26 04:28:45;;;;;;;36.37;9.83;;;;;;;;;;5071995;28;20493;-81
2023/01/26 04:31:10;;;;;;;27.63;8.23;;;;;;;;;;5073565;28;20020;-82
2023/01/26 04:33:36;;;;;;;39.93;11.13;;;;;;;;;;5071460;28;20028;-81
2023/01/26 04:36:02;;;;;;;30.97;9.73;;;;;;;;;;5071981;28;20115;-81
2023/01/26 04:38:27;;;;;;;34.40;10.03;;;;;;;;;;5072039;28;20024;-81
2023/01/26 04:40:53;;;;;;;27.47;9.10;;;;;;;;;;5071895;28;20078;-81
2023/01/26 04:43:18;;;;;;;35.23;9.77;;;;;;;;;;5071888;28;20067;-81
2023/01/26 04:45:43;;;;;;;37.23;10.37;;;;;;;;;;5069351;28;20028;-81
2023/01/26 04:48:08;;;;;;;40.63;9.90;;;;;;;;;;5071528;28;20394;-81
2023/01/26 04:50:34;;;;;;;39.07;10.37;;;;;;;;;;5071546;28;20046;-81
2023/01/26 04:52:59;;;;;;;32.60;9.93;;;;;;;;;;5072989;28;20107;-82
2023/01/26 04:55:24;;;;;;;40.83;10.60;;;;;;;;;;5066846;28;20118;-81
2023/01/26 04:57:49;;;;;;;42.67;10.67;;;;;;;;;;5071612;28;20033;-81
2023/01/26 05:00:14;;;;;;;34.83;10.13;;;;;;;;;;5072913;28;20013;-81
2023/01/26 05:02:40;;;;;;;41.57;9.97;;;;;;;;;;5071755;28;20155;-81
2023/01/26 05:05:05;;;;;;;43.33;11.47;;;;;;;;;;5070432;28;20444;-81
2023/01/26 05:07:30;;;;;;;43.57;10.70;;;;;;;;;;5072995;28;20009;-81
2023/01/26 05:09:56;;;;;;;32.27;8.17;;;;;;;;;;5071026;28;20052;-82
2023/01/26 05:12:33;;;;;;;35.57;9.87;;;;;;;;;;5071465;28;20023;-82
2023/01/26 05:14:58;;;;;;;37.47;9.43;;;;;;;;;;5070413;28;20052;-82
2023/01/26 05:17:23;;;;;;;31.47;10.13;;;;;;;;;;5071183;28;20082;-82
2023/01/26 05:19:49;;;;;;;33.80;9.23;;;;;;;;;;5071005;28;20107;-82
2023/01/26 05:22:14;;;;;;;33.97;10.47;;;;;;;;;;5071423;28;20410;-82
2023/01/26 05:24:39;;;;;;;34.83;8.47;;;;;;;;;;5070335;28;20025;-81
2023/01/26 05:27:19;;;;;;;32.47;9.87;;;;;;;;;;5071268;28;20024;-82
2023/01/26 05:29:45;;;;;;;33.43;8.93;;;;;;;;;;5071091;28;20040;-82
2023/01/26 05:32:10;;;;;;;31.17;9.20;;;;;;;;;;5070983;28;20025;-82
2023/01/26 05:34:35;;;;;;;28.50;9.00;;;;;;;;;;5069338;28;20467;-83
2023/01/26 05:37:00;;;;;;;28.27;8.00;;;;;;;;;;5071234;28;20431;-82
2023/01/26 05:39:25;;;;;;;33.70;8.60;;;;;;;;;;5070552;28;20029;-82
2023/01/26 05:41:51;;;;;;;25.03;7.10;;;;;;;;;;5070796;28;20466;-82
2023/01/26 05:44:16;;;;;;;29.87;7.87;;;;;;;;;;5069562;28;20451;-82
2023/01/26 05:46:41;;;;;;;29.77;7.27;;;;;;;;;;5070951;28;20027;-82
2023/01/26 05:49:06;;;;;;;25.57;7.03;;;;;;;;;;5070625;28;20020;-83
2023/01/26 05:51:31;;;;;;;26.00;7.37;;;;;;;;;;5070357;28;20032;-82
2023/01/26 05:53:57;;;;;;;30.07;7.70;;;;;;;;;;5070079;28;20027;-82
2023/01/26 05:56:22;;;;;;;30.67;7.93;;;;;;;;;;5070129;28;20368;-82
2023/01/26 05:58:47;;;;;;;24.97;7.37;;;;;;;;;;5070345;28;20017;-82
2023/01/26 06:01:12;;;;;;;24.63;6.20;;;;;;;;;;5070437;28;20020;-82
2023/01/26 06:03:37;;;;;;;19.27;6.23;;;;;;;;;;5070230;28;20012;-82
2023/01/26 06:06:03;;;;;;;28.60;7.03;;;;;;;;;;5071179;28;20016;-82
2023/01/26 06:08:28;;;;;;;23.10;6.70;;;;;;;;;;5072022;28;20016;-82
2023/01/26 06:10:57;;;;;;;22.27;6.50;;;;;;;;;;5070418;28;20029;-82
2023/01/26 06:13:23;;;;;;;26.37;6.37;;;;;;;;;;5070179;28;20395;-82
2023/01/26 06:15:48;;;;;;;27.13;6.77;;;;;;;;;;5069322;28;20020;-83
2023/01/26 06:18:13;;;;;;;26.20;7.20;;;;;;;;;;5072089;28;20028;-82
2023/01/26 06:20:38;;;;;;;21.00;5.67;;;;;;;;;;5071445;28;20699;-82
2023/01/26 06:23:04;;;;;;;26.20;7.10;;;;;;;;;;5070622;28;20044;-82
2023/01/26 06:25:29;;;;;;;20.90;6.43;;;;;;;;;;5069151;28;20037;-82
2023/01/26 06:27:58;;;;;;;21.50;5.93;;;;;;;;;;5070309;28;20436;-82
2023/01/26 06:30:23;;;;;;;22.73;5.37;;;;;;;;;;5069545;28;20029;-82
2023/01/26 06:32:48;;;;;;;21.37;5.43;;;;;;;;;;5070005;28;20028;-83
2023/01/26 06:35:13;;;;;;;18.83;4.77;;;;;;;;;;5069362;28;20017;-82
2023/01/26 06:37:39;;;;;;;18.97;5.33;;;;;;;;;;5069999;28;20063;-82
2023/01/26 06:40:04;;;;;;;20.87;5.23;;;;;;;;;;5071586;28;20062;-82
2023/01/26 06:42:29;;;;;;;16.27;4.20;;;;;;;;;;5071718;28;20146;-82
2023/01/26 06:44:57;;;;;;;18.10;4.13;;;;;;;;;;5066553;28;20045;-82
2023/01/26 06:47:22;;;;;;;15.87;4.50;;;;;;;;;;5060094;28;20103;-82
2023/01/26 06:49:48;;;;;;;15.50;4.43;;;;;;;;;;5069897;28;20028;-81
2023/01/26 06:52:28;;;;;;;21.43;5.40;;;;;;;;;;5070346;28;20016;-82
2023/01/26 06:54:56;;;;;;;16.33;4.30;;;;;;;;;;5068653;28;20027;-82
2023/01/26 06:57:21;;;;;;;15.53;4.50;;;;;;;;;;5069794;28;20028;-81
2023/01/26 06:59:46;;;;;;;16.33;3.53;;;;;;;;;;5069724;28;20025;-82
2023/01/26 07:02:15;;;;;;;16.23;4.20;;;;;;;;;;5071293;28;20017;-82
2023/01/26 07:04:40;;;;;;;21.60;4.53;;;;;;;;;;5072723;28;20464;-82
2023/01/26 07:07:05;;;;;;;13.17;3.57;;;;;;;;;;5073771;28;20093;-81
2023/01/26 07:09:31;;;;;;;15.70;4.50;;;;;;;;;;5075092;28;20013;-82
2023/01/26 07:11:56;;;;;;;18.40;4.70;;;;;;;;;;5073747;28;20089;-82
2023/01/26 07:14:21;;;;;;;10.73;3.43;;;;;;;;;;5072935;28;20463;-82
2023/01/26 07:16:46;;;;;;;19.73;5.07;;;;;;;;;;5073624;28;20063;-82
2023/01/26 07:19:11;;;;;;;17.63;5.13;;;;;;;;;;5073329;28;20132;-82
2023/01/26 07:21:37;;;;;;;14.23;4.53;;;;;;;;;;5075210;28;20020;-81
2023/01/26 07:24:03;;;;;;;17.13;3.73;;;;;;;;;;5073392;28;20453;-81
2023/01/26 07:26:28;;;;;;;15.90;3.97;;;;;;;;;;5073715;28;20044;-82
2023/01/26 07:28:54;;;;;;;12.47;3.43;;;;;;;;;;5073105;28;20008;-82
2023/01/26 07:31:19;;;;;;;14.27;4.40;;;;;;;;;;5072356;28;20055;-81
2023/01/26 07:33:44;;;;;;;14.33;4.20;;;;;;;;;;5073097;28;20031;-82
2023/01/26 07:36:09;;;;;;;13.87;3.60;;;;;;;;;;5072577;28;20024;-82
2023/01/26 07:38:35;;;;;;;19.03;4.67;;;;;;;;;;5073166;28;20054;-82
2023/01/26 07:41:05;;;;;;;17.40;3.97;;;;;;;;;;5073247;28;20392;-82
2023/01/26 07:43:31;;;;;;;10.47;3.50;;;;;;;;;;5073035;28;20016;-82
2023/01/26 07:45:56;;;;;;;13.43;4.07;;;;;;;;;;5071622;28;20025;-82
2023/01/26 07:48:22;;;;;;;10.37;3.43;;;;;;;;;;5071959;28;20464;-81
2023/01/26 07:50:48;;;;;;;15.43;3.60;;;;;;;;;;5072585;28;20612;-82
2023/01/26 07:53:14;;;;;;;16.30;4.03;;;;;;;;;;5072781;28;20031;-82
2023/01/26 07:55:40;;;;;;;19.20;4.60;;;;;;;;;;5071236;28;20123;-82
2023/01/26 07:58:05;;;;;;;17.53;4.10;;;;;;;;;;5072809;28;20506;-82
2023/01/26 08:00:30;;;;;;;13.40;3.13;;;;;;;;;;5073002;28;20024;-82
2023/01/26 08:02:56;;;;;;;13.10;3.57;;;;;;;;;;5073116;28;20090;-82
2023/01/26 08:05:21;;;;;;;10.43;3.43;;;;;;;;;;5071232;28;20020;-82
2023/01/26 08:07:46;;;;;;;10.27;2.83;;;;;;;;;;5072416;28;20373;-82
2023/01/26 08:10:13;;;;;;;11.70;3.40;;;;;;;;;;5072164;28;20028;-82
2023/01/26 08:12:38;;;;;;;13.87;3.57;;;;;;;;;;5071056;28;20027;-81
2023/01/26 08:15:04;;;;;;;13.10;3.37;;;;;;;;;;5072350;28;20025;-82
2023/01/26 08:17:29;;;;;;;23.60;4.73;;;;;;;;;;5072685;28;20606;-82
2023/01/26 08:19:54;;;;;;;13.80;3.90;;;;;;;;;;5073473;28;20020;-82
2023/01/26 08:22:19;;;;;;;11.87;3.87;;;;;;;;;;5071617;28;20079;-82
2023/01/26 08:24:45;;;;;;;14.87;3.63;;;;;;;;;;5072145;28;20089;-81
2023/01/26 08:27:10;;;;;;;15.73;4.37;;;;;;;;;;5072573;28;20522;-82
2023/01/26 08:29:35;;;;;;;20.53;4.23;;;;;;;;;;5071819;28;20016;-82
2023/01/26 08:32:00;;;;;;;15.53;3.63;;;;;;;;;;5072578;28;20017;-81
2023/01/26 08:34:26;;;;;;;10.80;3.67;;;;;;;;;;5073598;28;20024;-82
2023/01/26 08:36:51;;;;;;;11.67;3.77;;;;;;;;;;5072200;28;20413;-82
2023/01/26 08:39:16;;;;;;;10.67;3.63;;;;;;;;;;5071934;28;20043;-82
2023/01/26 08:41:41;;;;;;;13.53;3.70;;;;;;;;;;5071858;28;20017;-82
2023/01/26 08:44:08;;;;;;;12.00;3.27;;;;;;;;;;5070954;28;20024;-82
2023/01/26 08:46:33;;;;;;;10.23;3.13;;;;;;;;;;5070261;28;20020;-82
2023/01/26 08:48:58;;;;;;;9.13;3.57;;;;;;;;;;5071806;28;20491;-82
2023/01/26 08:51:24;;;;;;;10.27;3.53;;;;;;;;;;5071446;28;20032;-81
2023/01/26 08:53:49;;;;;;;14.93;4.13;;;;;;;;;;5072923;28;20098;-81
2023/01/26 08:56:14;;;;;;;11.60;3.70;;;;;;;;;;5072867;28;20431;-81
2023/01/26 08:58:39;;;;;;;9.93;3.60;;;;;;;;;;5071219;28;20017;-81
2023/01/26 09:01:04;;;;;;;10.27;3.63;;;;;;;;;;5071993;28;20032;-81
2023/01/26 09:03:30;;;;;;;10.30;3.00;;;;;;;;;;5070518;28;20039;-81
2023/01/26 09:05:57;;;;;;;11.63;3.40;;;;;;;;;;5071475;28;20052;-81
2023/01/26 09:08:23;;;;;;;12.40;3.37;;;;;;;;;;5072386;28;20398;-81
2023/01/26 09:10:48;;;;;;;8.50;3.00;;;;;;;;;;5072677;28;20100;-81
2023/01/26 09:13:13;;;;;;;11.33;3.50;;;;;;;;;;5070400;28;20024;-82
2023/01/26 09:15:38;;;;;;;7.77;2.90;;;;;;;;;;5071119;28;20027;-81
2023/01/26 09:18:04;;;;;;;8.87;3.23;;;;;;;;;;5071395;28;20021;-81
2023/01/26 09:20:29;;;;;;;9.33;3.03;;;;;;;;;;5070737;28;20028;-81
2023/01/26 09:22:54;;;;;;;11.97;3.17;;;;;;;;;;5070006;28;20024;-81
2023/01/26 09:25:19;;;;;;;9.83;2.90;;;;;;;;;;5071442;28;20028;-81
2023/01/26 09:27:44;;;;;;;8.27;2.87;;;;;;;;;;5070941;28;20025;-81
2023/01/26 09:30:10;;;;;;;7.63;2.80;;;;;;;;;;5071180;28;20035;-81
2023/01/26 09:32:35;;;;;;;9.70;3.30;;;;;;;;;;5069661;28;20025;-81
2023/01/26 09:35:00;;;;;;;11.97;3.10;;;;;;;;;;5070663;28;20017;-81
2023/01/26 09:37:26;;;;;;;10.90;3.37;;;;;;;;;;5070726;28;20399;-81
2023/01/26 09:39:51;;;;;;;9.97;4.00;;;;;;;;;;5071792;28;20387;-81
2023/01/26 09:42:16;;;;;;;8.20;2.77;;;;;;;;;;5067711;28;20086;-81
2023/01/26 09:44:47;;;;;;;9.77;3.47;;;;;;;;;;5068033;28;20021;-81
2023/01/26 09:47:14;;;;;;;6.30;2.72;;;;;;;;;;5068765;28;20054;-81
2023/01/26 09:49:40;;;;;;;10.57;2.97;;;;;;;;;;5068672;28;20086;-81
2023/01/26 09:52:09;;;;;;;6.30;3.00;;;;;;;;;;5070780;28;20028;-81
2023/01/26 09:54:37;;;;;;;8.17;2.67;;;;;;;;;;5068809;28;20093;-81
2023/01/26 09:57:10;;;;;;;9.77;3.10;;;;;;;;;;5071486;28;20107;-81
2023/01/26 09:59:36;;;;;;;9.03;2.77;;;;;;;;;;5070278;28;20099;-81
2023/01/26 10:02:15;;;;;;;10.43;3.10;;;;;;;;;;5070431;28;20115;-80
2023/01/26 10:04:42;;;;;;;9.63;3.23;;;;;;;;;;5069070;28;20024;-81
2023/01/26 10:07:11;;;;;;;11.03;2.70;;;;;;;;;;5069769;28;20097;-81
2023/01/26 10:09:37;;;;;;;8.33;3.00;;;;;;;;;;5070255;28;20028;-81
2023/01/26 10:12:07;;;;;;;7.70;3.00;;;;;;;;;;5070290;28;20028;-81
2023/01/26 10:14:34;;;;;;;7.50;2.50;;;;;;;;;;5070655;28;20043;-81
2023/01/26 10:17:00;;;;;;;8.57;2.80;;;;;;;;;;5069645;28;20040;-81
2023/01/26 10:19:44;;;;;;;7.97;3.13;;;;;;;;;;5069945;28;20032;-81
2023/01/26 10:22:12;;;;;;;9.23;2.97;;;;;;;;;;5070249;28;20352;-81
2023/01/26 10:24:38;;;;;;;8.90;3.20;;;;;;;;;;5068853;28;21078;-81
2023/01/26 10:27:09;;;;;;;10.90;2.93;;;;;;;;;;5069995;28;20490;-81
2023/01/26 10:29:34;;;;;;;8.77;3.47;;;;;;;;;;5068102;28;20119;-81
2023/01/26 10:31:59;;;;;;;7.13;2.93;;;;;;;;;;5069995;28;20048;-81
2023/01/26 10:34:25;;;;;;;7.63;2.67;;;;;;;;;;5069763;28;20111;-81
2023/01/26 10:36:52;;;;;;;9.07;3.13;;;;;;;;;;5070213;28;20059;-82
2023/01/26 10:39:17;;;;;;;8.63;3.87;;;;;;;;;;5074168;28;20094;-82
2023/01/26 10:41:55;;;;;;;8.27;3.40;;;;;;;;;;5073490;28;20456;-81
2023/01/26 10:44:30;;;;;;;9.33;3.27;;;;;;;;;;5072030;28;20050;-81
2023/01/26 10:47:10;;;;;;;11.17;3.97;;;;;;;;;;5061494;28;20639;-81
2023/01/26 10:49:35;;;;;;;11.10;3.43;;;;;;;;;;5073476;28;20047;-81
2023/01/26 10:52:05;;;;;;;9.33;3.67;;;;;;;;;;5071591;28;20024;-82
2023/01/26 10:54:32;;;;;;;7.10;3.10;;;;;;;;;;5070774;28;20040;-82
2023/01/26 10:57:09;;;;;;;16.30;4.53;;;;;;;;;;5073555;28;20046;-82
2023/01/26 10:59:42;;;;;;;8.70;3.70;;;;;;;;;;5073718;28;20082;-82
2023/01/26 11:02:10;;;;;;;11.63;3.73;;;;;;;;;;5073010;28;20036;-81
2023/01/26 11:04:36;;;;;;;14.27;3.73;;;;;;;;;;5073257;28;20571;-81
2023/01/26 11:07:39;;;;;;;13.30;3.90;;;;;;;;;;5073820;28;20013;-81
2023/01/26 11:10:20;;;;;;;11.13;4.07;;;;;;;;;;5014368;28;20113;-81
2023/01/26 11:12:45;;;;;;;14.50;4.50;;;;;;;;;;5059228;28;20033;-82
2023/01/26 11:15:18;;;;;;;13.27;3.33;;;;;;;;;;5073564;28;20047;-81
2023/01/26 11:18:02;;;;;;;12.07;3.90;;;;;;;;;;5074766;28;20123;-81
2023/01/26 11:20:33;;;;;;;11.67;3.93;;;;;;;;;;5072065;28;20063;-81
2023/01/26 11:23:21;;;;;;;9.50;3.33;;;;;;;;;;5073422;28;20057;-82
2023/01/26 11:26:02;;;;;;;15.17;4.50;;;;;;;;;;5073231;28;20391;-81
2023/01/26 11:28:46;;;;;;;10.37;3.50;;;;;;;;;;5073711;28;20074;-81
2023/01/26 11:31:21;;;;;;;10.37;3.37;;;;;;;;;;5072631;28;20059;-81
2023/01/26 11:33:54;;;;;;;12.17;3.73;;;;;;;;;;5073265;28;20487;-81
2023/01/26 11:36:38;;;;;;;11.80;3.43;;;;;;;;;;5073296;28;20056;-81
2023/01/26 11:39:13;;;;;;;13.33;4.43;;;;;;;;;;5073476;28;20056;-81
2023/01/26 11:41:57;;;;;;;13.70;4.03;;;;;;;;;;5072344;28;20467;-81
2023/01/26 11:44:44;;;;;;;10.33;4.00;;;;;;;;;;5071126;28;20736;-81
2023/01/26 11:47:10;;;;;;;13.13;4.53;;;;;;;;;;5082422;28;20031;-81
2023/01/26 11:49:44;;;;;;;13.93;4.20;;;;;;;;;;5078134;28;20028;-81
2023/01/26 11:52:09;;;;;;;13.77;4.00;;;;;;;;;;5085471;28;20024;-81
2023/01/26 11:54:42;;;;;;;17.10;4.20;;;;;;;;;;5074120;28;20428;-82
2023/01/26 11:57:10;;;;;;;13.77;4.83;;;;;;;;;;5081318;28;20097;-81
2023/01/26 11:59:42;;;;;;;12.30;4.00;;;;;;;;;;5092503;28;20439;-81
2023/01/26 12:02:10;;;;;;;12.32;4.00;;;;;;;;;;5094314;28;20046;-81
2023/01/26 12:04:36;;;;;;;17.43;4.73;;;;;;;;;;5087543;28;20398;-81
2023/01/26 12:07:18;;;;;;;15.37;4.43;;;;;;;;;;5066055;28;20085;-81
2023/01/26 12:09:46;;;;;;;10.70;3.73;;;;;;;;;;5092386;28;20097;-81
2023/01/26 12:12:16;;;;;;;17.33;5.57;;;;;;;;;;5092958;28;20028;-81
2023/01/26 12:14:42;;;;;;;10.93;3.73;;;;;;;;;;5087868;28;20024;-81
2023/01/26 12:17:07;;;;;;;13.13;3.33;;;;;;;;;;5088362;28;20035;-81
2023/01/26 12:19:39;;;;;;;11.17;3.67;;;;;;;;;;5079452;28;20063;-81
2023/01/26 12:22:09;;;;;;;17.07;4.10;;;;;;;;;;5089884;28;20019;-81
2023/01/26 12:24:40;;;;;;;15.23;4.13;;;;;;;;;;5092058;28;20810;-81
2023/01/26 12:27:11;;;;;;;14.10;4.00;;;;;;;;;;5081328;28;20013;-81
2023/01/26 12:29:46;;;;;;;10.87;3.70;;;;;;;;;;5072346;28;20467;-80
2023/01/26 12:32:12;;;;;;;21.07;6.83;;;;;;;;;;5073445;28;20073;-80
2023/01/26 12:34:37;;;;;;;11.97;4.33;;;;;;;;;;5071883;28;20103;-81
2023/01/26 12:37:12;;;;;;;15.43;4.57;;;;;;;;;;5072150;28;20887;-80
2023/01/26 12:39:40;;;;;;;15.63;3.83;;;;;;;;;;5071652;28;20033;-81
2023/01/26 12:42:28;;;;;;;22.37;5.20;;;;;;;;;;5071292;28;20954;-80
2023/01/26 12:44:55;;;;;;;12.83;3.50;;;;;;;;;;5070297;28;20070;-81
2023/01/26 12:47:32;;;;;;;13.10;4.03;;;;;;;;;;5071431;28;20050;-81
2023/01/26 12:50:00;;;;;;;16.13;3.77;;;;;;;;;;5070635;28;20383;-81
2023/01/26 12:52:31;;;;;;;12.80;3.93;;;;;;;;;;5068803;28;20017;-80
2023/01/26 12:55:00;;;;;;;12.47;3.83;;;;;;;;;;5070645;28;20032;-81
2023/01/26 12:57:30;;;;;;;13.87;4.03;;;;;;;;;;5070645;28;20036;-81
2023/01/26 13:00:01;;;;;;;14.50;3.80;;;;;;;;;;5086083;28;20035;-81
2023/01/26 13:02:28;;;;;;;10.93;3.30;;;;;;;;;;5070593;28;20130;-81
2023/01/26 13:04:54;;;;;;;15.40;3.47;;;;;;;;;;5070243;28;20032;-81
2023/01/26 13:07:31;;;;;;;11.17;4.30;;;;;;;;;;5070558;28;20379;-81
2023/01/26 13:10:09;;;;;;;14.63;4.93;;;;;;;;;;5071129;28;20017;-81
2023/01/26 13:12:43;;;;;;;11.87;3.53;;;;;;;;;;5055252;28;20028;-81
2023/01/26 13:15:12;;;;;;;19.13;4.80;;;;;;;;;;5065379;28;20375;-81
2023/01/26 13:17:56;;;;;;;17.37;4.40;;;;;;;;;;5071025;28;20008;-80
2023/01/26 13:20:25;;;;;;;11.23;4.17;;;;;;;;;;5070581;28;20025;-81
2023/01/26 13:22:51;;;;;;;10.47;3.47;;;;;;;;;;5071112;28;20019;-81
2023/01/26 13:25:34;;;;;;;14.33;4.03;;;;;;;;;;5070791;28;20387;-81
2023/01/26 13:28:01;;;;;;;8.07;3.43;;;;;;;;;;5068981;28;20510;-81
2023/01/26 13:30:29;;;;;;;11.13;4.97;;;;;;;;;;5070739;28;20074;-81
2023/01/26 13:33:00;;;;;;;12.93;4.20;;;;;;;;;;5070827;28;20039;-81
2023/01/26 13:35:26;;;;;;;12.07;3.60;;;;;;;;;;5070694;28;20036;-80
2023/01/26 13:37:51;;;;;;;19.40;3.90;;;;;;;;;;5069750;28;20604;-81
2023/01/26 13:40:16;;;;;;;36.00;11.97;;;;;;;;;;5070385;28;20085;-80
2023/01/26 13:42:53;;;;;;;23.03;8.47;;;;;;;;;;5071166;28;20082;-81
2023/01/26 13:45:24;;;;;;;10.33;4.13;;;;;;;;;;5060420;28;20012;-81
2023/01/26 13:47:50;;;;;;;12.20;3.83;;;;;;;;;;5070791;28;20082;-81
2023/01/26 13:50:22;;;;;;;6.67;2.03;;;;;;;;;;5070441;28;20420;-81
2023/01/26 13:52:47;;;;;;;7.47;2.22;;;;;;;;;;5069354;28;20027;-80
2023/01/26 13:55:21;;;;;;;11.27;2.97;;;;;;;;;;5083628;28;20027;-80
2023/01/26 13:57:48;;;;;;;9.60;3.23;;;;;;;;;;5090725;28;20020;-80
2023/01/26 14:00:13;;;;;;;4.67;1.80;;;;;;;;;;5090548;28;20103;-81
2023/01/26 14:02:39;;;;;;;3.83;2.00;;;;;;;;;;5090224;28;20458;-81
2023/01/26 14:05:04;;;;;;;3.90;1.60;;;;;;;;;;5077029;28;20513;-80
2023/01/26 14:07:31;;;;;;;6.87;1.40;;;;;;;;;;5085884;28;20031;-81
2023/01/26 14:09:58;;;;;;;3.23;1.40;;;;;;;;;;5091640;28;20024;-80
2023/01/26 14:12:28;;;;;;;5.43;2.17;;;;;;;;;;5090035;28;20390;-80
2023/01/26 14:14:54;;;;;;;4.17;1.37;;;;;;;;;;5088239;28;20058;-81
2023/01/26 14:17:28;;;;;;;11.73;2.50;;;;;;;;;;5090347;28;20455;-81
2023/01/26 14:19:53;;;;;;;9.30;1.57;;;;;;;;;;5089928;28;20024;-80
2023/01/26 14:22:20;;;;;;;6.40;2.57;;;;;;;;;;5090886;28;20283;-81
2023/01/26 14:24:49;;;;;;;6.20;2.10;;;;;;;;;;5090405;28;20016;-81
2023/01/26 14:27:20;;;;;;;7.63;3.07;;;;;;;;;;5077070;28;20024;-81
2023/01/26 14:29:46;;;;;;;8.67;1.30;;;;;;;;;;5069690;28;20119;-81
2023/01/26 14:32:14;;;;;;;10.37;1.00;;;;;;;;;;5071637;28;20086;-80
2023/01/26 14:34:50;;;;;;;5.97;1.10;;;;;;;;;;5070062;28;20032;-80
2023/01/26 14:37:16;;;;;;;8.13;1.17;;;;;;;;;;5070649;28;20031;-80
2023/01/26 14:39:43;;;;;;;5.07;1.00;;;;;;;;;;5069925;28;20016;-80
2023/01/26 14:42:13;;;;;;;4.23;1.90;;;;;;;;;;5070293;28;20069;-81
2023/01/26 14:44:38;;;;;;;2.57;1.03;;;;;;;;;;5069546;28;20024;-80
2023/01/26 14:47:14;;;;;;;2.90;0.77;;;;;;;;;;5070156;28;20016;-81
2023/01/26 14:49:52;;;;;;;3.57;0.90;;;;;;;;;;5068924;28;20574;-80
2023/01/26 14:52:25;;;;;;;1.43;0.50;;;;;;;;;;5069272;28;20389;-81
2023/01/26 14:54:56;;;;;;;1.80;0.70;;;;;;;;;;5069781;28;20103;-81
2023/01/26 14:57:25;;;;;;;4.75;0.82;;;;;;;;;;5070238;28;20087;-81
2023/01/26 14:59:52;;;;;;;1.30;0.60;;;;;;;;;;5068809;28;20614;-80
2023/01/26 15:02:17;;;;;;;1.07;0.60;;;;;;;;;;5070124;28;20111;-80
2023/01/26 15:04:45;;;;;;;5.73;1.87;;;;;;;;;;5069560;28;20017;-81
2023/01/26 15:07:20;;;;;;;5.47;0.77;;;;;;;;;;5069870;28;20383;-80
2023/01/26 15:09:50;;;;;;;4.10;0.53;;;;;;;;;;5069946;28;20483;-81
2023/01/26 15:12:15;;;;;;;1.07;0.50;;;;;;;;;;5070754;28;20119;-81
2023/01/26 15:14:44;;;;;;;0.70;0.27;;;;;;;;;;5069661;28;20727;-80
2023/01/26 15:17:25;;;;;;;2.10;0.53;;;;;;;;;;5070850;28;20020;-80